Time;durP1;ratioP1;P1;durP2;ratioP2;P2;SDS_P1;SDS_P2;PMS_P1;PMS_P2;Temp;Humidity;BMP_temperature;BMP_pressure;BME280_temperature;BME280_humidity;BME280_pressure;Samples;Min_cycle;Max_cycle;Signal;HPM_P1;HPM_P2
2023/09/23 00:00:34;;;;;;;20.25;18.42;;;;;;;9.92;100.00;100550.50;5028029;28;20032;-67
2023/09/23 00:02:59;;;;;;;19.67;17.98;;;;;;;9.90;100.00;100547.00;5040639;28;20017;-67
2023/09/23 00:05:27;;;;;;;20.77;18.88;;;;;;;9.89;100.00;100547.84;5027557;28;20032;-67
2023/09/23 00:07:52;;;;;;;20.38;18.58;;;;;;;9.91;100.00;100551.34;5027563;28;20049;-67
2023/09/23 00:10:17;;;;;;;22.23;20.23;;;;;;;9.92;100.00;100558.28;5027662;28;20036;-66
2023/09/23 00:12:43;;;;;;;25.00;22.60;;;;;;;9.90;100.00;100559.94;5028024;28;20077;-67
2023/09/23 00:15:12;;;;;;;28.20;25.50;;;;;;;9.89;100.00;100558.19;5027546;28;20025;-67
2023/09/23 00:17:38;;;;;;;30.73;27.92;;;;;;;9.88;100.00;100566.75;5027313;28;20191;-65
2023/09/23 00:20:17;;;;;;;33.42;30.15;;;;;;;9.85;100.00;100559.81;5027149;28;20029;-67
2023/09/23 00:22:45;;;;;;;36.92;33.33;;;;;;;9.85;100.00;100563.28;5029246;28;20052;-66
2023/09/23 00:25:10;;;;;;;39.45;35.53;;;;;;;9.83;100.00;100559.75;5047039;28;20136;-67
2023/09/23 00:27:36;;;;;;;36.78;33.15;;;;;;;9.82;100.00;100557.13;5046474;28;20044;-67
2023/09/23 00:30:04;;;;;;;34.58;31.33;;;;;;;9.77;100.00;100561.28;5037353;28;20034;-66
2023/09/23 00:32:32;;;;;;;31.58;28.48;;;;;;;9.74;100.00;100559.47;5030876;28;20384;-67
2023/09/23 00:34:59;;;;;;;28.55;25.83;;;;;;;9.73;100.00;100562.91;5047298;28;20025;-66
2023/09/23 00:37:24;;;;;;;30.58;27.58;;;;;;;9.74;100.00;100569.81;5042791;28;20021;-67
2023/09/23 00:39:50;;;;;;;29.17;26.08;;;;;;;9.74;100.00;100569.81;5037439;28;20037;-68
2023/09/23 00:42:19;;;;;;;27.63;24.92;;;;;;;9.78;100.00;100573.38;5043521;28;20018;-68
2023/09/23 00:44:45;;;;;;;27.55;24.85;;;;;;;9.76;100.00;100567.28;5027374;28;20044;-68
2023/09/23 00:47:13;;;;;;;28.17;25.35;;;;;;;9.78;100.00;100578.56;5027050;28;20026;-68
2023/09/23 00:49:40;;;;;;;29.08;25.95;;;;;;;9.80;100.00;100582.09;5027586;28;20044;-68
2023/09/23 00:52:06;;;;;;;29.38;26.33;;;;;;;9.82;100.00;100588.19;5027253;28;20109;-68
2023/09/23 00:54:35;;;;;;;29.35;26.45;;;;;;;9.85;100.00;100588.28;5026880;28;20401;-68
2023/09/23 00:57:02;;;;;;;29.27;25.70;;;;;;;9.88;100.00;100582.28;5030575;28;20033;-68
2023/09/23 00:59:29;;;;;;;27.70;24.90;;;;;;;9.84;100.00;100574.44;5031331;28;20767;-66
2023/09/23 01:01:56;;;;;;;27.48;24.63;;;;;;;9.87;100.00;100583.13;5031641;28;20032;-68
2023/09/23 01:04:21;;;;;;;24.90;22.30;;;;;;;9.87;100.00;100586.63;5030827;28;20089;-67
2023/09/23 01:06:48;;;;;;;24.05;19.40;;;;;;;9.91;100.00;100572.91;5029923;28;20084;-66
2023/09/23 01:09:20;;;;;;;21.23;17.05;;;;;;;9.93;100.00;100593.69;5030259;28;20108;-66
2023/09/23 01:11:46;;;;;;;17.38;15.55;;;;;;;9.92;100.00;100589.34;5030922;28;20068;-66
2023/09/23 01:14:12;;;;;;;17.10;14.35;;;;;;;9.94;100.00;100591.16;5030812;28;20568;-67
2023/09/23 01:16:37;;;;;;;15.35;13.27;;;;;;;9.92;100.00;100586.75;5030651;28;20029;-66
2023/09/23 01:19:03;;;;;;;14.13;12.73;;;;;;;9.94;100.00;100592.84;5030398;28;20505;-67
2023/09/23 01:21:28;;;;;;;14.05;11.98;;;;;;;9.93;100.00;100596.28;5031217;28;20026;-66
2023/09/23 01:23:53;;;;;;;15.48;12.77;;;;;;;9.94;100.00;100603.22;5030491;28;20057;-67
2023/09/23 01:26:19;;;;;;;14.48;12.98;;;;;;;9.98;100.00;100602.47;5030457;28;20528;-65
2023/09/23 01:28:47;;;;;;;18.95;12.48;;;;;;;9.99;100.00;100605.94;5030443;28;20351;-67
2023/09/23 01:31:13;;;;;;;15.75;12.52;;;;;;;9.97;100.00;100613.66;5031213;28;20500;-67
2023/09/23 01:33:38;;;;;;;17.67;13.38;;;;;;;9.98;100.00;100607.66;5029015;28;20028;-66
2023/09/23 01:36:05;;;;;;;18.58;12.95;;;;;;;9.99;100.00;100605.94;5030429;28;20017;-67
2023/09/23 01:38:31;;;;;;;16.48;13.57;;;;;;;10.01;100.00;100612.03;5030315;28;20104;-66
2023/09/23 01:40:56;;;;;;;16.60;13.43;;;;;;;10.01;100.00;100612.91;5028964;28;20449;-66
2023/09/23 01:43:21;;;;;;;16.27;12.05;;;;;;;10.02;100.00;100617.25;5042212;28;20079;-67
2023/09/23 01:45:47;;;;;;;18.55;12.35;;;;;;;10.01;100.00;100615.50;5043513;28;20025;-67
2023/09/23 01:48:12;;;;;;;15.70;12.43;;;;;;;10.01;100.00;100620.69;5029743;28;20096;-66
2023/09/23 01:50:37;;;;;;;16.83;12.30;;;;;;;10.02;100.00;100622.44;5029808;28;20459;-67
2023/09/23 01:53:04;;;;;;;15.80;11.85;;;;;;;10.04;100.00;100610.41;5028929;28;20393;-67
2023/09/23 01:55:29;;;;;;;16.63;11.20;;;;;;;10.06;100.00;100621.69;5029976;28;20381;-67
2023/09/23 01:57:55;;;;;;;14.07;10.80;;;;;;;10.07;100.00;100620.84;5029489;28;20026;-67
2023/09/23 02:00:28;;;;;;;15.35;11.05;;;;;;;10.07;100.00;100615.69;5030553;28;20466;-66
2023/09/23 02:02:54;;;;;;;14.75;11.02;;;;;;;10.12;100.00;100618.44;5029581;28;20029;-67
2023/09/23 02:05:21;;;;;;;16.33;10.70;;;;;;;10.14;100.00;100618.47;5029095;28;20022;-66
2023/09/23 02:07:50;;;;;;;12.80;9.70;;;;;;;10.12;100.00;100622.72;5029189;28;20490;-66
2023/09/23 02:10:15;;;;;;;12.98;9.90;;;;;;;10.09;100.00;100624.38;5017012;28;20030;-67
2023/09/23 02:12:42;;;;;;;13.90;9.77;;;;;;;10.04;100.00;100630.25;5029859;28;20083;-66
2023/09/23 02:15:08;;;;;;;13.10;9.30;;;;;;;10.05;100.00;100635.50;5029868;28;20457;-66
2023/09/23 02:17:36;;;;;;;13.38;10.23;;;;;;;10.06;100.00;100639.81;5029438;28;20025;-67
2023/09/23 02:20:10;;;;;;;11.70;9.18;;;;;;;10.07;100.00;100643.31;5029852;28;20424;-67
2023/09/23 02:22:37;;;;;;;14.70;9.73;;;;;;;10.06;100.00;100645.00;5029281;28;20032;-67
2023/09/23 02:25:07;;;;;;;14.65;8.00;;;;;;;10.09;100.00;100646.81;5029199;28;20061;-67
2023/09/23 02:27:32;;;;;;;14.02;8.98;;;;;;;10.05;100.00;100643.25;5028970;28;20027;-67
2023/09/23 02:29:58;;;;;;;13.05;8.20;;;;;;;10.07;100.00;100646.75;5029181;28;20026;-67
2023/09/23 02:32:23;;;;;;;9.85;8.60;;;;;;;10.07;100.00;100651.06;5028844;28;20032;-66
2023/09/23 02:34:48;;;;;;;10.57;7.55;;;;;;;10.00;100.00;100647.38;5029703;28;20021;-66
2023/09/23 02:37:14;;;;;;;16.35;7.90;;;;;;;9.99;100.00;100661.19;5029084;28;20040;-66
2023/09/23 02:39:40;;;;;;;14.38;7.72;;;;;;;9.95;100.00;100672.25;5029370;28;20332;-67
2023/09/23 02:42:06;;;;;;;12.73;7.55;;;;;;;9.90;100.00;100668.63;5028572;28;20429;-67
2023/09/23 02:44:31;;;;;;;10.52;7.60;;;;;;;9.91;100.00;100671.28;5029039;28;20187;-67
2023/09/23 02:46:57;;;;;;;9.88;7.10;;;;;;;9.93;100.00;100679.13;5028847;28;20384;-67
2023/09/23 02:49:22;;;;;;;10.77;6.95;;;;;;;9.91;100.00;100685.94;5028959;28;20025;-67
2023/09/23 02:51:48;;;;;;;10.90;6.30;;;;;;;9.88;100.00;100688.41;5029281;28;20026;-66
2023/09/23 02:54:15;;;;;;;9.15;7.32;;;;;;;9.85;100.00;100677.16;5028770;28;20024;-67
2023/09/23 02:56:41;;;;;;;12.10;7.00;;;;;;;9.85;100.00;100677.16;5029141;28;20026;-67
2023/09/23 02:59:21;;;;;;;9.60;6.82;;;;;;;9.87;100.00;100690.16;5028941;28;20031;-67
2023/09/23 03:01:53;;;;;;;11.82;6.93;;;;;;;9.83;100.00;100680.50;5029690;28;20559;-67
2023/09/23 03:04:25;;;;;;;9.57;6.10;;;;;;;9.87;100.00;100684.06;5028752;28;20029;-66
2023/09/23 03:07:01;;;;;;;14.43;6.38;;;;;;;9.88;100.00;100691.00;5028559;28;20125;-67
2023/09/23 03:09:32;;;;;;;9.57;5.68;;;;;;;9.81;100.00;100688.22;5029173;28;20028;-66
2023/09/23 03:11:59;;;;;;;7.70;5.93;;;;;;;9.80;100.00;100698.53;5017512;28;20021;-67
2023/09/23 03:14:30;;;;;;;11.75;5.72;;;;;;;9.80;100.00;100691.66;5030001;28;20025;-67
2023/09/23 03:16:57;;;;;;;8.75;5.60;;;;;;;9.84;100.00;100695.19;5029119;28;20090;-67
2023/09/23 03:19:27;;;;;;;11.02;5.50;;;;;;;9.82;100.00;100699.47;5029731;28;20021;-66
2023/09/23 03:21:56;;;;;;;13.20;5.95;;;;;;;9.81;100.00;100696.00;5029058;28;20036;-66
2023/09/23 03:24:22;;;;;;;11.70;5.30;;;;;;;9.78;100.00;100695.91;5030843;28;20108;-67
2023/09/23 03:26:47;;;;;;;13.02;5.63;;;;;;;9.80;100.00;100704.59;5029648;28;20029;-67
2023/09/23 03:29:13;;;;;;;10.35;5.30;;;;;;;9.81;100.00;100711.53;5030310;28;20158;-67
2023/09/23 03:31:39;;;;;;;10.10;5.90;;;;;;;9.80;100.00;100709.78;5029536;28;20048;-67
2023/09/23 03:34:05;;;;;;;11.63;5.65;;;;;;;9.79;100.00;100713.19;5030299;28;20052;-66
2023/09/23 03:36:31;;;;;;;7.93;4.90;;;;;;;9.78;100.00;100706.25;5030026;28;20060;-66
2023/09/23 03:38:57;;;;;;;9.68;5.43;;;;;;;9.76;100.00;100710.50;5028957;28;20092;-67
2023/09/23 03:41:23;;;;;;;8.43;4.57;;;;;;;9.76;100.00;100712.19;5027674;28;20082;-65
2023/09/23 03:43:48;;;;;;;8.25;5.32;;;;;;;9.77;100.00;100712.25;5027903;28;20390;-67
2023/09/23 03:46:16;;;;;;;10.90;5.15;;;;;;;9.77;100.00;100720.00;5027835;28;20025;-66
2023/09/23 03:48:41;;;;;;;8.77;5.05;;;;;;;9.77;100.00;100720.00;5040355;28;20080;-67
2023/09/23 03:51:09;;;;;;;9.25;5.60;;;;;;;9.77;100.00;100722.59;5028093;28;20021;-67
2023/09/23 03:53:35;;;;;;;7.13;4.95;;;;;;;9.76;100.00;100720.84;5039861;28;20459;-66
2023/09/23 03:56:01;;;;;;;11.70;5.38;;;;;;;9.74;100.00;100714.72;5038112;28;20035;-67
2023/09/23 03:58:27;;;;;;;10.65;5.05;;;;;;;9.73;100.00;100716.44;5046850;28;20380;-66
2023/09/23 04:00:56;;;;;;;8.85;4.72;;;;;;;9.69;100.00;100721.47;5037110;28;20028;-67
2023/09/23 04:03:22;;;;;;;7.50;5.15;;;;;;;9.70;100.00;100730.97;5027694;28;20315;-67
2023/09/23 04:05:57;;;;;;;9.18;5.05;;;;;;;9.73;100.00;100723.34;5039002;28;20028;-66
2023/09/23 04:08:22;;;;;;;9.23;5.70;;;;;;;9.73;100.00;100725.94;5028011;28;20380;-67
2023/09/23 04:10:48;;;;;;;9.05;5.10;;;;;;;9.74;100.00;100719.91;5027541;28;20108;-67
2023/09/23 04:13:14;;;;;;;10.98;5.85;;;;;;;9.69;100.00;100727.53;5032229;28;20028;-67
2023/09/23 04:15:40;;;;;;;11.10;4.80;;;;;;;9.72;100.00;100731.91;5047100;28;20582;-65
2023/09/23 04:18:05;;;;;;;6.60;4.85;;;;;;;9.73;100.00;100737.13;5046564;28;20041;-66
2023/09/23 04:20:32;;;;;;;7.75;4.70;;;;;;;9.72;100.00;100737.09;5035209;28;20442;-67
2023/09/23 04:22:57;;;;;;;9.52;5.43;;;;;;;9.73;100.00;100742.31;5044983;28;20025;-66
2023/09/23 04:25:23;;;;;;;9.93;5.60;;;;;;;9.77;100.00;100750.19;5046545;28;20488;-67
2023/09/23 04:27:49;;;;;;;12.68;5.65;;;;;;;9.81;100.00;100749.44;5028948;28;20024;-66
2023/09/23 04:30:15;;;;;;;10.68;5.20;;;;;;;9.79;100.00;100759.75;5028053;28;20029;-66
2023/09/23 04:32:41;;;;;;;8.48;4.63;;;;;;;9.78;100.00;100763.19;5032357;28;20033;-65
2023/09/23 04:35:14;;;;;;;7.80;4.43;;;;;;;9.77;100.00;100766.59;5031540;28;20040;-66
2023/09/23 04:37:39;;;;;;;8.13;4.82;;;;;;;9.78;100.00;100770.06;5031192;28;20196;-66
2023/09/23 04:40:10;;;;;;;6.57;4.95;;;;;;;9.75;100.00;100772.56;5030902;28;20116;-66
2023/09/23 04:42:41;;;;;;;9.43;4.93;;;;;;;9.74;100.00;100776.84;5050127;28;20063;-66
2023/09/23 04:45:11;;;;;;;8.82;4.93;;;;;;;9.72;100.00;100774.19;5049985;28;20059;-67
2023/09/23 04:47:37;;;;;;;9.35;5.03;;;;;;;9.75;100.00;100782.91;5026027;28;20044;-66
2023/09/23 04:50:04;;;;;;;7.88;5.20;;;;;;;9.74;100.00;100776.84;5049072;28;20492;-67
2023/09/23 04:52:33;;;;;;;7.68;4.82;;;;;;;9.73;100.00;100781.13;5050447;28;20021;-67
2023/09/23 04:54:59;;;;;;;6.88;4.93;;;;;;;9.70;100.00;100780.13;5049302;28;20021;-67
2023/09/23 04:57:24;;;;;;;8.57;4.85;;;;;;;9.69;100.00;100774.09;5050552;28;20029;-67
2023/09/23 04:59:52;;;;;;;8.55;4.78;;;;;;;9.71;100.00;100784.50;5049159;28;20274;-66
2023/09/23 05:02:17;;;;;;;6.95;5.20;;;;;;;9.67;100.00;100790.38;5049705;28;20021;-67
2023/09/23 05:04:45;;;;;;;9.38;5.70;;;;;;;9.63;100.00;100783.34;5049453;28;20032;-67
2023/09/23 05:07:12;;;;;;;10.93;5.75;;;;;;;9.63;100.00;100788.50;5049767;28;20041;-67
2023/09/23 05:09:38;;;;;;;9.13;5.80;;;;;;;9.61;100.00;100791.03;5047955;28;20064;-66
2023/09/23 05:12:04;;;;;;;10.98;5.20;;;;;;;9.63;100.00;100794.56;5050425;28;20060;-67
2023/09/23 05:14:30;;;;;;;8.90;4.90;;;;;;;9.61;100.00;100807.47;5049137;28;20464;-67
2023/09/23 05:16:56;;;;;;;7.57;4.95;;;;;;;9.61;100.00;100809.16;5039638;28;20037;-66
2023/09/23 05:19:21;;;;;;;9.35;5.50;;;;;;;9.59;100.00;100814.28;5028811;28;20017;-67
2023/09/23 05:21:47;;;;;;;11.07;5.68;;;;;;;9.56;100.00;100824.53;5036105;28;20029;-67
2023/09/23 05:24:12;;;;;;;8.88;5.80;;;;;;;9.58;100.00;100832.34;5033103;28;20030;-67
2023/09/23 05:26:40;;;;;;;9.95;5.63;;;;;;;9.58;100.00;100833.22;5028936;28;20017;-65
2023/09/23 05:29:05;;;;;;;11.02;6.15;;;;;;;9.56;100.00;100840.06;5029192;28;20513;-67
2023/09/23 05:31:30;;;;;;;12.90;6.47;;;;;;;9.53;100.00;100850.31;5037559;28;20025;-66
2023/09/23 05:33:56;;;;;;;8.30;5.10;;;;;;;9.55;100.00;100856.38;5048176;28;20033;-65
2023/09/23 05:36:21;;;;;;;9.52;5.30;;;;;;;9.56;100.00;100860.75;5050209;28;20021;-67
2023/09/23 05:38:47;;;;;;;9.15;6.60;;;;;;;9.57;100.00;100857.31;5035228;28;20025;-67
2023/09/23 05:41:13;;;;;;;10.23;5.72;;;;;;;9.56;100.00;100852.09;5029470;28;20440;-67
2023/09/23 05:43:38;;;;;;;8.25;5.50;;;;;;;9.57;100.00;100857.31;5030355;28;20153;-65
2023/09/23 05:46:09;;;;;;;8.73;5.65;;;;;;;9.59;100.00;100871.19;5033924;28;20033;-67
2023/09/23 05:48:34;;;;;;;10.40;6.15;;;;;;;9.59;100.00;100868.63;5038338;28;20029;-66
2023/09/23 05:51:04;;;;;;;9.80;5.93;;;;;;;9.55;100.00;100869.31;5033959;28;20029;-66
2023/09/23 05:53:30;;;;;;;7.22;5.90;;;;;;;9.60;100.00;100878.16;5030703;28;20025;-66
2023/09/23 05:55:55;;;;;;;9.23;6.30;;;;;;;9.62;100.00;100878.22;5048237;28;20392;-66
2023/09/23 05:58:21;;;;;;;7.85;5.70;;;;;;;9.66;100.00;100882.66;5024092;28;20065;-66
2023/09/23 06:00:46;;;;;;;10.40;5.57;;;;;;;9.60;100.00;100878.16;5018827;28;20041;-66
2023/09/23 06:03:15;;;;;;;7.03;5.65;;;;;;;9.63;100.00;100886.81;5018385;28;20035;-67
2023/09/23 06:05:41;;;;;;;10.32;5.80;;;;;;;9.67;100.00;100893.88;5026706;28;20087;-67
2023/09/23 06:08:06;;;;;;;10.57;5.70;;;;;;;9.68;100.00;100906.88;5021071;28;20527;-65
2023/09/23 06:10:33;;;;;;;8.30;5.88;;;;;;;9.66;100.00;100899.91;5025965;28;20029;-67
2023/09/23 06:12:58;;;;;;;8.57;5.68;;;;;;;9.73;100.00;100909.66;5022366;28;20457;-67
2023/09/23 06:15:23;;;;;;;6.50;5.32;;;;;;;9.78;100.00;100918.47;5026602;28;20034;-65
2023/09/23 06:17:49;;;;;;;9.27;5.82;;;;;;;9.78;100.00;100923.66;5026987;28;20378;-65
2023/09/23 06:20:15;;;;;;;9.93;5.70;;;;;;;9.82;100.00;100922.91;5026959;28;20033;-67
2023/09/23 06:22:40;;;;;;;9.38;5.65;;;;;;;9.85;100.00;100930.81;5030315;28;20420;-67
2023/09/23 06:25:05;;;;;;;7.68;5.28;;;;;;;9.91;100.00;100939.63;5024763;28;20068;-68
2023/09/23 06:27:31;;;;;;;8.98;5.40;;;;;;;9.95;100.00;100941.47;5029921;28;20021;-68
2023/09/23 06:29:56;;;;;;;9.23;5.78;;;;;;;9.95;100.00;100942.38;5022996;28;20092;-68
2023/09/23 06:32:21;;;;;;;9.60;5.88;;;;;;;9.96;100.00;100945.84;5028769;28;20017;-68
2023/09/23 06:34:47;;;;;;;7.30;5.55;;;;;;;10.00;100.00;100955.47;5022275;28;20037;-68
2023/09/23 06:37:12;;;;;;;6.93;5.03;;;;;;;10.01;100.00;100952.06;5029927;28;20033;-68
2023/09/23 06:39:37;;;;;;;10.98;5.95;;;;;;;10.04;100.00;100957.34;5023295;28;20042;-68
2023/09/23 06:42:03;;;;;;;9.13;5.72;;;;;;;10.07;100.00;100962.63;5023331;28;20033;-68
2023/09/23 06:44:28;;;;;;;7.15;5.35;;;;;;;10.13;100.00;100961.13;5034852;28;20040;-67
2023/09/23 06:46:53;;;;;;;8.40;5.72;;;;;;;10.18;100.00;100964.75;5025477;28;20242;-68
2023/09/23 06:49:19;;;;;;;9.07;5.72;;;;;;;10.28;100.00;100974.59;5023582;28;20049;-68
2023/09/23 06:51:44;;;;;;;9.40;5.72;;;;;;;10.35;100.00;100978.28;5024940;28;20034;-67
2023/09/23 06:54:09;;;;;;;7.72;5.70;;;;;;;10.41;100.00;100982.81;5020785;28;20070;-67
2023/09/23 06:56:36;;;;;;;8.48;5.03;;;;;;;10.45;100.00;100984.69;5024197;28;20422;-67
2023/09/23 06:59:01;;;;;;;8.82;4.93;;;;;;;10.48;100.00;100976.16;5019030;28;20393;-67
2023/09/23 07:01:27;;;;;;;11.48;5.72;;;;;;;10.52;100.00;100981.47;5022247;28;20041;-68
2023/09/23 07:03:52;;;;;;;8.93;5.55;;;;;;;10.54;100.00;100985.00;5020948;28;20469;-67
2023/09/23 07:06:17;;;;;;;11.63;5.40;;;;;;;10.56;100.00;100985.94;5027240;28;20057;-67
2023/09/23 07:08:43;;;;;;;8.65;5.05;;;;;;;10.53;100.00;100988.44;5020448;28;20072;-68
2023/09/23 07:11:15;;;;;;;8.60;5.20;;;;;;;10.60;100.00;100993.81;5025996;28;20378;-67
2023/09/23 07:13:40;;;;;;;11.45;6.03;;;;;;;10.66;100.00;100991.44;5020555;28;20037;-68
2023/09/23 07:16:05;;;;;;;6.32;5.47;;;;;;;10.68;100.00;101003.66;5026733;28;20281;-68
2023/09/23 07:18:31;;;;;;;8.52;5.55;;;;;;;10.72;100.00;101004.59;5030185;28;20048;-68
2023/09/23 07:20:57;;;;;;;7.68;6.13;;;;;;;10.73;100.00;101011.56;5032914;28;20025;-67
2023/09/23 07:23:22;;;;;;;11.65;5.90;;;;;;;10.79;100.00;101010.91;5036823;28;20033;-68
2023/09/23 07:25:47;;;;;;;9.13;6.47;;;;;;;10.84;100.00;101013.63;5026076;28;20536;-69
2023/09/23 07:28:13;;;;;;;7.88;6.07;;;;;;;10.94;100.00;101026.06;5035288;28;20068;-67
2023/09/23 07:30:38;;;;;;;9.75;6.38;;;;;;;11.21;100.00;101030.41;5029155;28;20065;-68
2023/09/23 07:33:04;;;;;;;9.80;6.85;;;;;;;11.68;100.00;101036.16;5017701;28;20100;-69
2023/09/23 07:35:33;;;;;;;10.40;6.93;;;;;;;12.09;100.00;101043.41;5021567;28;20029;-68
2023/09/23 07:38:01;;;;;;;7.63;5.45;;;;;;;12.32;100.00;101053.66;5020235;28;20033;-68
2023/09/23 07:40:28;;;;;;;7.53;5.25;;;;;;;12.64;100.00;101047.56;5019112;28;20029;-69
2023/09/23 07:42:53;;;;;;;7.53;4.03;;;;;;;12.97;100.00;101052.75;5018527;28;20036;-69
2023/09/23 07:45:19;;;;;;;6.47;4.20;;;;;;;13.45;100.00;101055.63;5017939;28;20029;-68
2023/09/23 07:47:44;;;;;;;4.35;3.60;;;;;;;13.92;100.00;101067.13;5025145;28;20042;-69
2023/09/23 07:50:09;;;;;;;7.03;3.90;;;;;;;14.15;100.00;101066.78;5014653;28;20120;-67
2023/09/23 07:52:35;;;;;;;5.32;3.20;;;;;;;14.55;100.00;101065.81;5015846;28;20461;-69
2023/09/23 07:55:01;;;;;;;6.28;3.20;;;;;;;14.57;100.00;101071.03;5012069;28;20044;-69
2023/09/23 07:57:27;;;;;;;7.43;3.40;;;;;;;14.61;100.00;101071.13;5012934;28;20473;-69
2023/09/23 07:59:52;;;;;;;6.93;3.10;;;;;;;14.65;100.00;101072.94;5010911;28;20088;-69
2023/09/23 08:02:17;;;;;;;5.28;3.10;;;;;;;15.02;100.00;101079.69;5022862;28;20029;-69
2023/09/23 08:04:43;;;;;;;4.65;2.30;;;;;;;15.23;100.00;101081.81;5020542;28;20043;-68
2023/09/23 08:07:08;;;;;;;5.18;2.53;;;;;;;15.47;100.00;101093.47;5022415;28;20049;-68
2023/09/23 08:09:33;;;;;;;3.70;2.63;;;;;;;15.48;100.00;101099.59;5020314;28;20025;-67
2023/09/23 08:11:58;;;;;;;4.18;2.70;;;;;;;15.53;100.00;101100.53;5026699;28;20066;-68
2023/09/23 08:14:25;;;;;;;5.72;2.83;;;;;;;15.74;100.00;101106.94;5025930;28;20370;-69
2023/09/23 08:16:53;;;;;;;5.57;2.72;;;;;;;15.97;100.00;101109.03;5026836;28;20040;-69
2023/09/23 08:19:18;;;;;;;4.82;2.42;;;;;;;15.99;100.00;101107.31;5027310;28;20028;-69
2023/09/23 08:21:45;;;;;;;5.55;2.75;;;;;;;15.94;100.00;101116.78;5027223;28;20033;-68
2023/09/23 08:24:11;;;;;;;6.00;2.28;;;;;;;16.07;100.00;101120.50;5025599;28;20024;-68
2023/09/23 08:26:36;;;;;;;3.42;2.50;;;;;;;16.05;100.00;101112.66;5026349;28;20037;-68
2023/09/23 08:29:02;;;;;;;3.90;2.55;;;;;;;16.05;100.00;101117.88;5028685;28;20014;-68
2023/09/23 08:31:28;;;;;;;4.72;2.38;;;;;;;15.86;100.00;101129.78;5027886;28;20033;-68
2023/09/23 08:33:54;;;;;;;6.03;2.50;;;;;;;15.87;100.00;101125.41;5028526;28;20021;-67
2023/09/23 08:36:20;;;;;;;5.63;2.53;;;;;;;15.97;100.00;101137.78;5028263;28;20025;-67
2023/09/23 08:38:45;;;;;;;5.10;2.17;;;;;;;15.91;100.00;101140.28;5027735;28;20428;-67
2023/09/23 08:41:13;;;;;;;4.55;2.42;;;;;;;15.98;100.00;101149.97;5026529;28;20390;-67
2023/09/23 08:43:42;;;;;;;5.32;2.60;;;;;;;15.98;100.00;101149.97;5027096;28;20405;-67
2023/09/23 08:46:09;;;;;;;6.40;2.53;;;;;;;15.95;100.00;101152.53;5026429;28;20179;-67
2023/09/23 08:48:35;;;;;;;5.75;2.45;;;;;;;15.91;100.00;101156.84;5028172;28;20028;-67
2023/09/23 08:51:03;;;;;;;7.90;2.60;;;;;;;16.11;100.00;101161.50;5034474;28;20515;-66
2023/09/23 08:53:32;;;;;;;5.88;2.70;;;;;;;15.97;100.00;101166.50;5031399;28;20041;-67
2023/09/23 08:55:59;;;;;;;5.88;2.20;;;;;;;15.87;100.00;101169.81;5026376;28;20033;-68
2023/09/23 08:58:24;;;;;;;7.60;2.10;;;;;;;15.94;100.00;101171.66;5026160;28;20029;-67
2023/09/23 09:00:52;;;;;;;4.03;2.42;;;;;;;16.07;100.00;101188.47;5026728;28;20377;-67
2023/09/23 09:03:17;;;;;;;7.45;2.50;;;;;;;15.83;100.00;101188.06;5025541;28;20390;-67
2023/09/23 09:05:43;;;;;;;6.75;2.28;;;;;;;15.50;100.00;101191.91;5027493;28;20029;-68
2023/09/23 09:08:09;;;;;;;4.90;2.78;;;;;;;15.32;100.00;101188.13;5038778;28;20060;-67
2023/09/23 09:10:34;;;;;;;5.40;2.28;;;;;;;15.42;100.00;101188.25;5038978;28;20071;-67
2023/09/23 09:13:04;;;;;;;5.65;2.38;;;;;;;15.34;100.00;101186.38;5042241;28;20039;-68
2023/09/23 09:15:30;;;;;;;5.30;2.08;;;;;;;15.31;100.00;101195.94;5035669;28;20029;-67
2023/09/23 09:17:58;;;;;;;5.38;2.40;;;;;;;14.99;100.00;101189.25;5022779;28;20038;-67
2023/09/23 09:20:23;;;;;;;4.07;2.10;;;;;;;14.89;100.00;101193.41;5019287;28;20021;-66
2023/09/23 09:22:51;;;;;;;6.82;2.67;;;;;;;15.03;100.00;101200.63;5018521;28;20026;-68
2023/09/23 09:25:20;;;;;;;6.80;2.50;;;;;;;15.03;100.00;101206.72;5023404;28;20071;-68
2023/09/23 09:27:46;;;;;;;5.82;2.42;;;;;;;15.16;100.00;101205.22;5023933;28;20041;-68
2023/09/23 09:30:11;;;;;;;3.45;2.10;;;;;;;15.13;100.00;101208.66;5020702;28;20025;-69
2023/09/23 09:32:43;;;;;;;4.05;2.20;;;;;;;15.22;100.00;101215.78;5022286;28;20108;-69
2023/09/23 09:35:13;;;;;;;3.53;2.05;;;;;;;15.18;100.00;101220.91;5024530;28;20034;-68
2023/09/23 09:37:43;;;;;;;5.33;1.97;;;;;;;15.15;100.00;101220.88;5021763;28;20026;-68
2023/09/23 09:40:13;;;;;;;6.20;2.47;;;;;;;15.13;100.00;101218.19;5020176;28;20442;-68
2023/09/23 09:42:42;;;;;;;4.35;1.65;;;;;;;15.05;100.00;101225.91;5021692;28;20033;-68
2023/09/23 09:45:09;;;;;;;4.60;2.20;;;;;;;14.89;100.00;101233.41;5021297;28;20036;-67
2023/09/23 09:47:36;;;;;;;6.90;1.98;;;;;;;14.62;100.00;101231.97;5020514;28;20036;-68
2023/09/23 09:50:03;;;;;;;6.38;1.63;;;;;;;14.67;100.00;101239.00;5019727;28;20486;-68
2023/09/23 09:52:30;;;;;;;4.25;1.50;;;;;;;14.71;100.00;101235.63;5018255;28;20064;-68
2023/09/23 09:54:59;;;;;;;3.47;1.48;;;;;;;14.70;100.00;101239.06;5020024;28;20064;-68
2023/09/23 09:57:29;;;;;;;8.32;2.10;;;;;;;14.67;100.00;101239.00;5017135;28;20041;-68
2023/09/23 10:00:00;;;;;;;3.10;1.48;;;;;;;14.65;100.00;101231.16;5011745;28;20052;-69
2023/09/23 10:02:26;;;;;;;5.28;1.60;;;;;;;14.73;100.00;101242.59;5017239;28;20312;-69
2023/09/23 10:04:53;;;;;;;5.13;1.80;;;;;;;14.80;100.00;101240.16;5016300;28;20029;-69
2023/09/23 10:07:22;;;;;;;4.38;1.52;;;;;;;14.86;100.00;101251.63;5022913;28;20041;-68
2023/09/23 10:09:55;;;;;;;6.57;1.70;;;;;;;14.87;100.00;101248.19;5015463;28;20053;-69
2023/09/23 10:12:25;;;;;;;6.07;2.13;;;;;;;14.94;100.00;101243.06;5023615;28;20477;-68
2023/09/23 10:14:57;;;;;;;4.55;2.15;;;;;;;14.97;100.00;101245.72;5022027;28;20509;-68
2023/09/23 10:17:31;;;;;;;6.25;1.63;;;;;;;14.97;100.00;101250.94;5026028;28;20049;-68
2023/09/23 10:19:57;;;;;;;8.13;2.10;;;;;;;14.96;100.00;101257.03;5021035;28;20711;-69
2023/09/23 10:22:23;;;;;;;3.55;1.55;;;;;;;14.94;100.00;101248.28;5030008;28;20058;-68
2023/09/23 10:25:04;;;;;;;5.15;1.55;;;;;;;14.95;100.00;101255.28;5034695;28;20039;-66
2023/09/23 10:27:31;;;;;;;5.10;1.95;;;;;;;14.92;100.00;101260.41;5030778;28;20044;-67
2023/09/23 10:29:56;;;;;;;7.00;1.92;;;;;;;15.02;100.00;101272.78;5025076;28;20037;-67
2023/09/23 10:32:21;;;;;;;3.83;1.65;;;;;;;15.10;100.00;101263.41;5021522;28;20044;-67
2023/09/23 10:34:47;;;;;;;3.75;1.95;;;;;;;15.18;100.00;101273.13;5027315;28;20029;-67
2023/09/23 10:37:23;;;;;;;5.40;2.20;;;;;;;15.22;100.00;101267.09;5033829;28;20156;-67
2023/09/23 10:39:48;;;;;;;6.07;2.15;;;;;;;15.30;100.00;101268.13;5045018;28;20040;-67
2023/09/23 10:42:14;;;;;;;5.65;2.35;;;;;;;15.32;100.00;101276.88;5043385;28;20025;-66
2023/09/23 10:44:39;;;;;;;4.97;1.63;;;;;;;15.24;100.00;101281.94;5047547;28;20100;-67
2023/09/23 10:47:05;;;;;;;4.68;1.77;;;;;;;15.22;100.00;101274.91;5042184;28;20276;-66
2023/09/23 10:49:30;;;;;;;3.55;1.63;;;;;;;15.15;100.00;101280.91;5043495;28;20057;-67
2023/09/23 10:51:57;;;;;;;5.75;2.38;;;;;;;15.07;100.00;101281.63;5042065;28;20025;-67
2023/09/23 10:54:24;;;;;;;5.72;1.67;;;;;;;15.13;100.00;101292.19;5046537;28;20033;-67
2023/09/23 10:56:49;;;;;;;3.95;1.90;;;;;;;15.07;100.00;101291.19;5045744;28;20397;-67
2023/09/23 10:59:15;;;;;;;5.03;1.95;;;;;;;15.13;100.00;101286.94;5043646;28;20021;-66
2023/09/23 11:01:40;;;;;;;3.40;1.70;;;;;;;15.19;100.00;101290.53;5041911;28;20024;-67
2023/09/23 11:04:06;;;;;;;5.10;2.05;;;;;;;15.24;100.00;101289.78;5037467;28;20484;-67
2023/09/23 11:06:33;;;;;;;5.85;2.20;;;;;;;15.25;100.00;101298.50;5042319;28;20043;-67
2023/09/23 11:08:59;;;;;;;5.95;1.85;;;;;;;15.16;100.00;101307.03;5046226;28;20102;-67
2023/09/23 11:11:24;;;;;;;3.90;1.95;;;;;;;15.11;100.00;101309.53;5044272;28;20021;-65
2023/09/23 11:13:50;;;;;;;4.65;1.67;;;;;;;15.20;100.00;101313.19;5045092;28;20056;-67